Time;durP1;ratioP1;P1;durP2;ratioP2;P2;SDS_P1;SDS_P2;PMS_P1;PMS_P2;Temp;Humidity;BMP_temperature;BMP_pressure;BME280_temperature;BME280_humidity;BME280_pressure;Samples;Min_cycle;Max_cycle;Signal;HPM_P1;HPM_P2
2021/10/26 00:01:41;;;;;;;14.95;7.70;;;10.00;99.90;;;;;;5037834;28;20383;-56
2021/10/26 00:04:08;;;;;;;13.70;7.80;;;10.00;99.90;;;;;;5029856;28;20449;-57
2021/10/26 00:06:34;;;;;;;13.90;8.25;;;9.90;99.90;;;;;;5044465;28;20387;-56
2021/10/26 00:09:00;;;;;;;14.50;7.70;;;9.80;99.90;;;;;;5029612;28;20391;-56
2021/10/26 00:11:25;;;;;;;13.45;7.70;;;9.80;99.90;;;;;;5029177;28;20399;-56
2021/10/26 00:13:51;;;;;;;15.73;8.13;;;9.80;99.90;;;;;;5029833;28;20421;-56
2021/10/26 00:16:17;;;;;;;12.88;7.38;;;9.80;99.90;;;;;;5028726;28;20389;-56
2021/10/26 00:18:43;;;;;;;13.70;7.93;;;9.80;99.90;;;;;;5029491;28;20390;-56
2021/10/26 00:21:10;;;;;;;12.85;7.40;;;9.90;99.90;;;;;;5029909;28;20387;-56
2021/10/26 00:23:36;;;;;;;17.10;8.05;;;9.90;99.90;;;;;;5029077;28;20471;-56
2021/10/26 00:26:03;;;;;;;15.50;8.15;;;9.90;99.90;;;;;;5029634;28;20462;-56
2021/10/26 00:28:32;;;;;;;13.18;7.40;;;9.80;99.90;;;;;;5028734;28;20482;-56
2021/10/26 00:30:58;;;;;;;16.75;9.48;;;9.90;99.90;;;;;;5029725;28;20383;-56
2021/10/26 00:33:24;;;;;;;14.00;7.87;;;9.90;99.90;;;;;;5028849;28;20411;-57
2021/10/26 00:35:50;;;;;;;18.30;8.40;;;10.00;99.90;;;;;;5044808;28;20489;-58
2021/10/26 00:38:16;;;;;;;15.63;8.18;;;10.10;99.90;;;;;;5028276;28;20498;-56
2021/10/26 00:40:45;;;;;;;15.02;7.95;;;10.10;99.90;;;;;;5029344;28;20387;-56
2021/10/26 00:43:11;;;;;;;13.80;7.40;;;10.20;99.90;;;;;;5028855;28;20391;-59
2021/10/26 00:45:37;;;;;;;15.00;8.60;;;10.20;99.90;;;;;;5029001;28;20769;-56
2021/10/26 00:48:03;;;;;;;15.00;7.85;;;10.50;99.90;;;;;;5028995;28;20380;-56
2021/10/26 00:50:29;;;;;;;13.60;8.10;;;10.60;99.90;;;;;;5028508;28;20417;-57
2021/10/26 00:52:55;;;;;;;12.88;8.38;;;10.60;99.90;;;;;;5028909;28;20411;-56
2021/10/26 00:55:20;;;;;;;14.63;8.00;;;10.70;99.90;;;;;;5043781;28;20403;-56
2021/10/26 00:57:47;;;;;;;16.55;8.18;;;10.90;99.90;;;;;;5029234;28;20433;-56
2021/10/26 01:00:15;;;;;;;12.52;7.72;;;11.00;99.90;;;;;;5029010;28;20379;-59
2021/10/26 01:02:44;;;;;;;14.45;8.70;;;10.90;99.90;;;;;;5028913;28;20406;-56
2021/10/26 01:05:10;;;;;;;15.23;9.43;;;11.00;99.90;;;;;;5044382;28;20399;-56
2021/10/26 01:07:36;;;;;;;15.07;8.63;;;12.40;99.90;;;;;;5028591;28;20393;-54
2021/10/26 01:10:03;;;;;;;13.57;7.70;;;10.90;99.90;;;;;;5028882;28;20501;-56
2021/10/26 01:12:29;;;;;;;16.40;9.70;;;10.80;99.90;;;;;;5028387;28;20470;-56
2021/10/26 01:14:58;;;;;;;17.13;9.05;;;10.80;99.90;;;;;;5029222;28;20399;-56
2021/10/26 01:17:24;;;;;;;15.52;8.48;;;10.80;99.90;;;;;;5028100;28;20470;-57
2021/10/26 01:19:56;;;;;;;18.05;8.15;;;10.80;99.90;;;;;;5029232;28;20877;-56
2021/10/26 01:22:27;;;;;;;15.00;8.05;;;10.90;99.90;;;;;;5028576;28;20387;-56
2021/10/26 01:24:55;;;;;;;14.30;8.13;;;10.90;99.90;;;;;;5029163;28;20398;-57
2021/10/26 01:27:23;;;;;;;17.23;9.10;;;10.90;99.90;;;;;;5028674;28;20464;-56
2021/10/26 01:29:50;;;;;;;15.88;8.68;;;10.90;99.90;;;;;;5029286;28;20441;-57
2021/10/26 01:32:17;;;;;;;14.05;8.70;;;11.00;99.90;;;;;;5028359;28;20390;-59
2021/10/26 01:34:43;;;;;;;14.55;8.32;;;11.00;99.90;;;;;;5028709;28;20419;-56
2021/10/26 01:37:10;;;;;;;12.73;7.90;;;10.90;99.90;;;;;;5028869;28;20988;-56
2021/10/26 01:39:37;;;;;;;16.20;8.70;;;10.80;99.90;;;;;;5028174;28;20391;-56
2021/10/26 01:42:05;;;;;;;12.47;8.20;;;10.90;99.90;;;;;;5027713;28;20934;-56
2021/10/26 01:44:31;;;;;;;14.07;8.13;;;10.90;99.90;;;;;;5028404;28;20482;-56
2021/10/26 01:46:56;;;;;;;15.65;8.85;;;11.00;99.90;;;;;;5028571;28;20471;-57
2021/10/26 01:49:22;;;;;;;15.15;8.27;;;11.10;99.90;;;;;;5034426;28;20910;-56
2021/10/26 01:51:50;;;;;;;12.95;8.10;;;11.30;99.90;;;;;;5045910;28;20392;-54
2021/10/26 01:54:16;;;;;;;13.75;8.20;;;11.40;99.90;;;;;;5028180;28;20449;-57
2021/10/26 01:56:42;;;;;;;17.98;8.73;;;11.40;99.90;;;;;;5042212;28;20390;-56
2021/10/26 01:59:09;;;;;;;14.00;8.60;;;11.40;99.90;;;;;;5048923;28;20378;-56
2021/10/26 02:01:35;;;;;;;15.38;9.27;;;11.40;99.90;;;;;;5046560;28;20586;-54
2021/10/26 02:04:01;;;;;;;14.77;8.87;;;11.70;99.90;;;;;;5051072;28;20849;-53
2021/10/26 02:06:27;;;;;;;13.57;7.63;;;11.70;99.90;;;;;;5050895;28;20892;-54
2021/10/26 02:08:52;;;;;;;13.53;8.07;;;11.80;99.90;;;;;;5052136;28;20472;-56
2021/10/26 02:11:18;;;;;;;13.50;8.48;;;11.70;99.90;;;;;;5050696;28;20406;-57
2021/10/26 02:13:44;;;;;;;15.80;8.63;;;11.80;99.90;;;;;;5039269;28;20419;-54
2021/10/26 02:16:10;;;;;;;14.45;8.02;;;11.80;99.90;;;;;;5050789;28;20450;-54
2021/10/26 02:18:36;;;;;;;14.38;8.35;;;11.80;99.90;;;;;;5049729;28;20381;-54
2021/10/26 02:21:01;;;;;;;16.87;8.60;;;11.80;99.90;;;;;;5051510;28;20389;-54
2021/10/26 02:23:27;;;;;;;13.60;9.30;;;11.90;99.90;;;;;;5051151;28;20378;-54
2021/10/26 02:25:53;;;;;;;14.15;8.60;;;11.90;99.90;;;;;;5051481;28;20497;-54
2021/10/26 02:28:19;;;;;;;13.60;7.87;;;12.00;99.90;;;;;;5050639;28;20381;-55
2021/10/26 02:30:44;;;;;;;13.52;8.45;;;12.20;99.90;;;;;;5050356;28;20412;-54
2021/10/26 02:33:11;;;;;;;16.70;9.00;;;12.30;99.90;;;;;;5051209;28;20405;-54
2021/10/26 02:35:37;;;;;;;16.45;8.88;;;12.30;99.90;;;;;;5050792;28;20385;-54
2021/10/26 02:38:05;;;;;;;15.60;9.10;;;12.30;99.90;;;;;;5051077;28;20386;-54
2021/10/26 02:40:31;;;;;;;14.30;8.88;;;12.30;99.90;;;;;;5050495;28;20378;-54
2021/10/26 02:42:57;;;;;;;20.45;9.23;;;12.00;99.90;;;;;;5051502;28;20470;-54
2021/10/26 02:45:30;;;;;;;16.45;9.00;;;12.00;99.90;;;;;;5050402;28;20389;-54
2021/10/26 02:47:57;;;;;;;15.17;9.10;;;11.90;99.90;;;;;;5051423;28;20730;-54
2021/10/26 02:50:23;;;;;;;17.65;9.57;;;11.80;99.90;;;;;;5049291;28;20484;-54
2021/10/26 02:52:48;;;;;;;17.10;9.60;;;11.80;99.90;;;;;;5051095;28;20988;-54
2021/10/26 02:55:14;;;;;;;14.40;9.17;;;11.80;99.90;;;;;;5051202;28;20413;-58
2021/10/26 02:57:40;;;;;;;16.23;9.10;;;11.80;99.90;;;;;;5050608;28;20781;-54
2021/10/26 03:00:10;;;;;;;17.47;9.33;;;11.80;99.90;;;;;;5050778;28;20396;-54
2021/10/26 03:02:36;;;;;;;16.92;9.80;;;11.80;99.90;;;;;;5050290;28;20439;-54
2021/10/26 03:05:02;;;;;;;13.02;8.70;;;11.80;99.90;;;;;;5050864;28;20418;-54
2021/10/26 03:07:28;;;;;;;16.05;9.75;;;11.70;99.90;;;;;;5050014;28;20412;-54
2021/10/26 03:09:54;;;;;;;15.80;9.97;;;11.80;99.90;;;;;;5050272;28;20880;-54
2021/10/26 03:12:19;;;;;;;17.52;10.15;;;11.70;99.90;;;;;;5050081;28;20382;-54
2021/10/26 03:14:45;;;;;;;16.13;9.60;;;11.70;99.90;;;;;;5049586;28;20738;-54
2021/10/26 03:17:11;;;;;;;16.60;9.75;;;11.70;99.90;;;;;;5050676;28;20378;-54
2021/10/26 03:19:36;;;;;;;16.80;9.60;;;11.70;99.90;;;;;;5038167;28;20461;-54
2021/10/26 03:22:02;;;;;;;16.50;10.97;;;11.70;99.90;;;;;;5050850;28;20431;-54
2021/10/26 03:24:28;;;;;;;17.88;10.45;;;11.60;99.90;;;;;;5034255;28;20391;-54
2021/10/26 03:26:55;;;;;;;17.45;10.10;;;11.50;99.90;;;;;;5030582;28;20888;-54
2021/10/26 03:29:21;;;;;;;15.83;10.43;;;11.50;99.90;;;;;;5032097;28;20391;-54
2021/10/26 03:31:48;;;;;;;16.45;10.80;;;11.60;99.90;;;;;;5050114;28;20381;-53
2021/10/26 03:34:13;;;;;;;16.23;9.52;;;11.40;99.90;;;;;;5050431;28;20975;-56
2021/10/26 03:36:39;;;;;;;16.73;9.63;;;11.40;99.90;;;;;;5049798;28;20647;-54
2021/10/26 03:39:05;;;;;;;16.73;10.47;;;11.40;99.90;;;;;;5044985;28;20791;-53
2021/10/26 03:41:30;;;;;;;17.25;10.20;;;11.30;99.90;;;;;;5034041;28;20399;-54
2021/10/26 03:43:56;;;;;;;16.10;10.07;;;11.40;99.90;;;;;;5044306;28;20414;-54
2021/10/26 03:46:22;;;;;;;22.05;10.77;;;11.40;99.90;;;;;;5061606;28;20754;-54
2021/10/26 03:48:47;;;;;;;19.13;12.60;;;11.30;99.90;;;;;;5030363;28;20375;-58
2021/10/26 03:51:13;;;;;;;21.08;14.65;;;11.20;99.90;;;;;;5030295;28;20387;-56
2021/10/26 03:53:38;;;;;;;20.40;14.15;;;11.10;99.90;;;;;;5029423;28;20489;-54
2021/10/26 03:56:04;;;;;;;18.27;11.00;;;11.10;99.90;;;;;;5030330;28;20390;-56
2021/10/26 03:58:32;;;;;;;17.17;10.35;;;11.10;99.90;;;;;;5029417;28;20387;-56
2021/10/26 04:00:57;;;;;;;18.58;10.65;;;11.00;99.90;;;;;;5062234;28;20875;-56
2021/10/26 04:03:24;;;;;;;16.60;10.18;;;10.90;99.90;;;;;;5029475;28;20391;-54
2021/10/26 04:08:24;;;;;;;18.33;10.02;;;10.80;99.90;;;;;;5029425;28;20395;-55
2021/10/26 04:10:53;;;;;;;16.50;9.80;;;10.70;99.90;;;;;;5029288;28;20429;-57
2021/10/26 04:13:21;;;;;;;17.73;10.10;;;10.60;99.90;;;;;;5029106;28;20457;-57
2021/10/26 04:15:47;;;;;;;18.77;10.65;;;10.60;99.90;;;;;;5030231;28;20493;-56
2021/10/26 04:18:13;;;;;;;17.20;10.80;;;10.50;99.90;;;;;;5029461;28;20478;-56
2021/10/26 04:20:39;;;;;;;18.55;10.85;;;10.50;99.90;;;;;;5029181;28;20391;-56
2021/10/26 04:23:05;;;;;;;16.98;10.55;;;10.50;99.90;;;;;;5029520;28;20406;-57
2021/10/26 04:25:32;;;;;;;17.40;10.45;;;10.60;99.90;;;;;;5028852;28;20372;-56
2021/10/26 04:27:59;;;;;;;17.27;10.13;;;10.50;99.90;;;;;;5029746;28;20379;-56
2021/10/26 04:30:24;;;;;;;16.58;10.90;;;10.60;99.90;;;;;;5028955;28;20930;-56
2021/10/26 04:32:50;;;;;;;19.53;11.00;;;10.60;99.90;;;;;;5029800;28;20493;-58
2021/10/26 04:35:16;;;;;;;16.20;10.20;;;10.70;99.90;;;;;;5075239;28;20389;-60
2021/10/26 04:37:42;;;;;;;16.37;11.13;;;10.90;99.90;;;;;;5037958;28;20436;-57
2021/10/26 04:40:08;;;;;;;15.55;10.70;;;10.80;99.90;;;;;;5049421;28;20381;-56
2021/10/26 04:42:35;;;;;;;16.33;10.90;;;10.80;99.90;;;;;;5048665;28;20601;-56
2021/10/26 04:45:01;;;;;;;17.85;11.20;;;10.80;99.90;;;;;;5049581;28;20383;-55
2021/10/26 04:47:27;;;;;;;16.33;10.33;;;10.90;99.90;;;;;;5048047;28;20460;-56
2021/10/26 04:49:53;;;;;;;16.27;10.43;;;11.00;99.90;;;;;;5043508;28;20388;-55
2021/10/26 04:52:19;;;;;;;17.70;10.70;;;10.90;99.90;;;;;;5047410;28;20441;-56
2021/10/26 04:54:45;;;;;;;17.35;11.10;;;10.90;99.90;;;;;;5036389;28;20442;-55
2021/10/26 04:57:11;;;;;;;20.83;11.55;;;10.90;99.90;;;;;;5040745;28;20753;-55
2021/10/26 04:59:37;;;;;;;19.80;11.85;;;10.80;99.90;;;;;;5047318;28;20884;-55
2021/10/26 05:02:03;;;;;;;19.80;11.73;;;10.70;99.90;;;;;;5040051;28;20385;-55
2021/10/26 05:04:29;;;;;;;17.92;11.75;;;10.60;99.90;;;;;;5047325;28;20915;-55
2021/10/26 05:06:54;;;;;;;18.20;12.20;;;10.50;99.90;;;;;;5049141;28;20393;-55
2021/10/26 05:09:21;;;;;;;21.33;13.05;;;10.50;99.90;;;;;;5048364;28;20400;-56
2021/10/26 05:11:47;;;;;;;23.05;13.82;;;10.50;99.90;;;;;;5049650;28;20574;-55
2021/10/26 05:14:13;;;;;;;25.02;15.02;;;10.40;99.90;;;;;;5048776;28;20512;-55
2021/10/26 05:16:39;;;;;;;20.92;14.30;;;10.40;99.90;;;;;;5048237;28;20377;-55
2021/10/26 05:19:07;;;;;;;23.60;14.30;;;10.50;99.90;;;;;;5049053;28;20769;-55
2021/10/26 05:21:33;;;;;;;24.58;13.50;;;10.50;99.90;;;;;;5047338;28;20390;-55
2021/10/26 05:23:58;;;;;;;21.65;13.43;;;10.40;99.90;;;;;;5047833;28;20396;-55
2021/10/26 05:26:25;;;;;;;22.70;14.97;;;10.30;99.90;;;;;;5048461;28;20865;-55
2021/10/26 05:28:51;;;;;;;21.50;13.00;;;10.20;99.90;;;;;;5041628;28;20399;-55
2021/10/26 05:31:18;;;;;;;20.27;13.75;;;10.20;99.90;;;;;;5037708;28;20379;-58
2021/10/26 05:33:44;;;;;;;20.55;13.70;;;10.20;99.90;;;;;;5037074;28;20539;-56
2021/10/26 05:36:11;;;;;;;20.10;12.60;;;10.20;99.90;;;;;;5048573;28;20860;-56
2021/10/26 05:38:37;;;;;;;21.40;13.48;;;10.20;99.90;;;;;;5049827;28;20397;-56
2021/10/26 05:41:05;;;;;;;21.02;13.60;;;10.10;99.90;;;;;;5051734;28;20405;-56
2021/10/26 05:43:31;;;;;;;19.95;11.90;;;10.00;99.90;;;;;;5051321;28;20435;-57
2021/10/26 05:45:57;;;;;;;21.98;13.77;;;10.00;99.90;;;;;;5046608;28;20378;-56
2021/10/26 05:48:23;;;;;;;21.50;12.80;;;10.00;99.90;;;;;;5042139;28;20492;-56
2021/10/26 05:50:49;;;;;;;21.63;13.52;;;10.10;99.90;;;;;;5043539;28;21008;-56
2021/10/26 05:53:15;;;;;;;21.90;13.90;;;10.10;99.90;;;;;;5040313;28;20433;-55
2021/10/26 05:55:44;;;;;;;21.43;14.90;;;10.00;99.90;;;;;;5031722;28;20471;-56
2021/10/26 05:58:11;;;;;;;23.47;14.43;;;10.10;99.90;;;;;;5049247;28;20377;-56
2021/10/26 06:00:38;;;;;;;23.90;14.00;;;10.20;99.90;;;;;;5049522;28;20409;-56
2021/10/26 06:03:04;;;;;;;21.55;13.63;;;10.20;99.90;;;;;;5040347;28;20754;-56
2021/10/26 06:05:30;;;;;;;20.95;13.25;;;10.10;99.90;;;;;;5038371;28;20899;-56
2021/10/26 06:07:57;;;;;;;21.45;14.07;;;10.10;99.90;;;;;;5051480;28;20397;-56
2021/10/26 06:10:23;;;;;;;19.70;13.85;;;10.10;99.90;;;;;;5051126;28;20453;-56
2021/10/26 06:12:58;;;;;;;24.00;14.02;;;10.10;99.90;;;;;;5051986;28;20408;-56
2021/10/26 06:15:24;;;;;;;23.55;14.45;;;10.30;99.90;;;;;;5075729;28;20421;-56
2021/10/26 06:17:50;;;;;;;22.75;13.93;;;10.20;99.90;;;;;;5046889;28;20803;-56
2021/10/26 06:20:17;;;;;;;20.73;13.43;;;10.20;99.90;;;;;;5037725;28;20854;-59
2021/10/26 06:22:43;;;;;;;23.48;14.00;;;10.10;99.90;;;;;;5051245;28;20451;-56
2021/10/26 06:25:09;;;;;;;21.20;13.23;;;10.10;99.90;;;;;;5051331;28;20386;-58
2021/10/26 06:27:35;;;;;;;21.17;13.13;;;10.10;99.90;;;;;;5050959;28;20385;-56
2021/10/26 06:30:01;;;;;;;23.00;13.70;;;10.20;99.90;;;;;;5051399;28;20782;-57
2021/10/26 06:32:27;;;;;;;21.67;13.20;;;10.40;99.90;;;;;;5051174;28;20386;-56
2021/10/26 06:34:53;;;;;;;21.08;13.70;;;10.40;99.90;;;;;;5050888;28;20449;-56
2021/10/26 06:37:20;;;;;;;21.00;13.30;;;10.30;99.90;;;;;;5045626;28;20485;-59
2021/10/26 06:39:46;;;;;;;24.02;13.60;;;10.40;99.90;;;;;;5032763;28;20444;-57
2021/10/26 06:42:12;;;;;;;20.35;12.65;;;10.40;99.90;;;;;;5051554;28;20381;-57
2021/10/26 06:44:37;;;;;;;20.37;13.10;;;10.50;99.90;;;;;;5042832;28;20398;-57
2021/10/26 06:47:03;;;;;;;19.95;12.65;;;10.70;99.90;;;;;;5041221;28;20441;-56
2021/10/26 06:49:29;;;;;;;22.30;12.97;;;10.80;99.90;;;;;;5048353;28;20401;-56
2021/10/26 06:51:55;;;;;;;20.40;13.25;;;10.70;99.90;;;;;;5031060;28;20750;-57
2021/10/26 06:54:21;;;;;;;21.42;12.60;;;10.60;99.90;;;;;;5030363;28;20422;-59
2021/10/26 06:56:47;;;;;;;21.10;12.80;;;10.60;99.90;;;;;;5039368;28;20382;-57
2021/10/26 06:59:12;;;;;;;21.80;13.65;;;10.70;99.90;;;;;;5051299;28;20464;-56
2021/10/26 07:01:38;;;;;;;19.57;12.13;;;10.80;99.90;;;;;;5050995;28;20815;-56
2021/10/26 07:04:04;;;;;;;20.23;12.10;;;10.90;99.90;;;;;;5051138;28;20408;-56
2021/10/26 07:06:30;;;;;;;23.13;12.18;;;10.90;99.90;;;;;;5049893;28;20377;-56
2021/10/26 07:08:55;;;;;;;19.58;11.73;;;11.10;99.90;;;;;;5050838;28;20469;-56
2021/10/26 07:11:21;;;;;;;18.20;11.90;;;11.20;99.90;;;;;;5048942;28;20496;-56
2021/10/26 07:13:49;;;;;;;19.25;12.07;;;11.40;99.90;;;;;;5043149;28;20797;-57
2021/10/26 07:16:14;;;;;;;17.77;12.38;;;11.60;99.90;;;;;;5040947;28;20393;-53
2021/10/26 07:18:40;;;;;;;18.23;11.83;;;11.90;99.90;;;;;;5044763;28;20730;-54
2021/10/26 07:21:05;;;;;;;17.02;11.20;;;12.50;99.90;;;;;;5042886;28;20401;-56
2021/10/26 07:23:31;;;;;;;18.93;11.30;;;13.30;99.90;;;;;;5043302;28;20878;-57
2021/10/26 07:25:57;;;;;;;18.43;11.70;;;14.20;99.90;;;;;;5036824;28;20410;-56
2021/10/26 07:28:23;;;;;;;18.60;10.40;;;14.90;99.90;;;;;;5038015;28;20416;-57
2021/10/26 07:30:49;;;;;;;16.80;10.25;;;14.80;99.90;;;;;;5050006;28;20474;-56
2021/10/26 07:33:22;;;;;;;19.00;10.40;;;14.80;99.90;;;;;;5031770;28;20418;-56
2021/10/26 07:35:50;;;;;;;16.57;10.30;;;14.70;99.90;;;;;;5045357;28;20427;-56
2021/10/26 07:38:27;;;;;;;15.52;10.65;;;14.60;99.90;;;;;;5031421;28;20755;-56
2021/10/26 07:40:54;;;;;;;17.88;10.50;;;15.00;99.90;;;;;;5043750;28;20397;-56
2021/10/26 07:43:20;;;;;;;17.67;11.30;;;15.40;99.90;;;;;;5049529;28;20875;-59
2021/10/26 07:45:46;;;;;;;16.58;9.85;;;15.40;99.90;;;;;;5046433;28;20437;-56
2021/10/26 07:48:12;;;;;;;14.13;10.10;;;15.30;99.90;;;;;;5049166;28;20866;-56
2021/10/26 07:50:37;;;;;;;16.67;10.20;;;15.20;99.90;;;;;;5045452;28;20405;-58
2021/10/26 07:53:04;;;;;;;16.00;10.85;;;15.10;99.90;;;;;;5045205;28;20892;-57
2021/10/26 07:55:30;;;;;;;21.17;11.10;;;14.80;99.90;;;;;;5046933;28;21106;-55
2021/10/26 07:57:56;;;;;;;18.13;12.23;;;14.50;99.90;;;;;;5047389;28;20402;-55
2021/10/26 08:00:23;;;;;;;22.27;12.85;;;14.40;99.90;;;;;;5046665;28;20430;-58
2021/10/26 08:02:50;;;;;;;22.95;12.25;;;14.20;99.90;;;;;;5045358;28;20440;-56
2021/10/26 08:05:17;;;;;;;20.23;12.32;;;14.10;99.90;;;;;;5047881;28;20409;-56
2021/10/26 08:07:42;;;;;;;19.53;11.83;;;13.90;99.90;;;;;;5048943;28;20397;-55
2021/10/26 08:10:08;;;;;;;22.17;12.30;;;13.90;99.90;;;;;;5048830;28;20459;-56
2021/10/26 08:12:34;;;;;;;22.13;12.80;;;13.70;99.90;;;;;;5048116;28;20439;-56
2021/10/26 08:15:00;;;;;;;19.30;13.00;;;13.60;99.90;;;;;;5048224;28;20399;-56
2021/10/26 08:17:26;;;;;;;21.95;12.43;;;13.70;99.90;;;;;;5047609;28;20397;-56
2021/10/26 08:19:51;;;;;;;20.58;13.25;;;13.60;99.90;;;;;;5049923;28;20480;-55
2021/10/26 08:22:19;;;;;;;20.60;12.90;;;13.40;99.90;;;;;;5049482;28;20849;-55
2021/10/26 08:24:52;;;;;;;19.85;13.00;;;13.30;99.90;;;;;;5049199;28;20421;-56
2021/10/26 08:27:20;;;;;;;20.25;12.45;;;13.40;99.90;;;;;;5049568;28;20388;-57
2021/10/26 08:29:54;;;;;;;16.08;11.00;;;15.20;99.90;;;;;;5048929;28;20431;-55
2021/10/26 08:37:39;;;;;;;18.25;15.30;;;21.00;99.90;;;;;;5047391;28;20411;-58
2021/10/26 08:40:07;;;;;;;16.25;14.52;;;22.00;99.90;;;;;;5045610;28;20402;-56
2021/10/26 08:42:33;;;;;;;18.73;16.73;;;23.40;99.90;;;;;;5042620;28;20413;-56
2021/10/26 08:44:59;;;;;;;17.50;11.27;;;23.80;98.40;;;;;;5048163;28;20387;-58
2021/10/26 08:47:26;;;;;;;15.30;9.80;;;22.40;99.60;;;;;;5035830;28;20794;-55
2021/10/26 08:49:53;;;;;;;18.47;13.37;;;20.50;99.90;;;;;;5048635;28;20384;-56
2021/10/26 08:52:24;;;;;;;17.05;12.25;;;19.20;99.90;;;;;;5048332;28;20472;-56
2021/10/26 08:54:54;;;;;;;16.83;11.27;;;18.50;99.90;;;;;;5044859;28;20413;-56
2021/10/26 08:57:21;;;;;;;14.63;10.93;;;18.00;99.90;;;;;;5044869;28;20500;-59
2021/10/26 08:59:47;;;;;;;16.13;10.38;;;18.70;99.90;;;;;;5044633;28;20405;-55
2021/10/26 09:02:13;;;;;;;14.75;9.70;;;19.50;99.90;;;;;;5040249;28;20977;-56
2021/10/26 09:04:39;;;;;;;13.40;8.17;;;19.40;99.90;;;;;;5046596;28;20401;-56
2021/10/26 09:07:17;;;;;;;12.32;9.02;;;19.00;99.90;;;;;;5048143;28;20832;-56
2021/10/26 09:09:43;;;;;;;12.38;7.70;;;18.60;99.90;;;;;;5048118;28;20409;-56
2021/10/26 09:17:46;;;;;;;12.60;7.00;;;17.30;99.90;;;;;;5052019;28;20376;-56
2021/10/26 09:20:24;;;;;;;14.23;8.40;;;17.10;99.90;;;;;;5052540;28;20381;-56
2021/10/26 09:22:51;;;;;;;11.82;7.70;;;17.20;99.90;;;;;;5052586;28;20413;-56
2021/10/26 09:25:20;;;;;;;13.93;8.32;;;17.20;99.90;;;;;;5052583;28;20389;-58
2021/10/26 09:27:49;;;;;;;11.85;7.28;;;17.50;99.90;;;;;;5052304;28;20377;-56
2021/10/26 09:30:18;;;;;;;14.30;7.90;;;18.30;99.90;;;;;;5052698;28;20844;-56
2021/10/26 09:32:47;;;;;;;12.05;7.85;;;18.30;99.90;;;;;;5051431;28;20386;-56
2021/10/26 09:35:16;;;;;;;13.73;8.10;;;18.20;99.90;;;;;;5052446;28;20431;-57
2021/10/26 09:37:56;;;;;;;11.57;7.40;;;18.10;99.90;;;;;;5050338;28;20446;-56
2021/10/26 09:40:42;;;;;;;10.95;6.35;;;17.60;99.90;;;;;;5052319;28;20459;-60
2021/10/26 09:43:10;;;;;;;13.27;6.90;;;17.50;99.90;;;;;;5052113;28;20476;-57
2021/10/26 09:45:36;;;;;;;12.20;6.53;;;17.70;99.90;;;;;;5051292;28;20413;-57
2021/10/26 09:48:14;;;;;;;12.02;7.07;;;17.60;99.90;;;;;;5052001;28;20385;-57
2021/10/26 09:50:41;;;;;;;13.20;6.50;;;17.60;99.90;;;;;;5051713;28;20493;-57
2021/10/26 09:53:14;;;;;;;10.65;6.55;;;17.80;99.90;;;;;;5051968;28;20405;-57
2021/10/26 09:55:46;;;;;;;11.50;7.40;;;18.00;99.90;;;;;;5051196;28;20396;-57
2021/10/26 09:58:15;;;;;;;12.15;6.85;;;17.70;99.90;;;;;;5052395;28;20856;-57
2021/10/26 10:00:46;;;;;;;12.13;6.82;;;17.30;99.90;;;;;;5051336;28;20389;-56
2021/10/26 10:03:16;;;;;;;11.43;7.57;;;17.20;99.90;;;;;;5052396;28;20396;-56
2021/10/26 10:06:04;;;;;;;13.30;7.57;;;17.00;99.90;;;;;;5051582;28;20710;-57
2021/10/26 10:08:33;;;;;;;12.48;8.60;;;17.00;99.90;;;;;;5050954;28;20408;-57
2021/10/26 10:11:11;;;;;;;13.40;7.10;;;17.30;99.90;;;;;;5051981;28;20410;-58
2021/10/26 10:13:42;;;;;;;12.93;6.82;;;17.80;99.90;;;;;;5051316;28;20490;-57
2021/10/26 10:16:12;;;;;;;11.18;6.75;;;17.90;99.90;;;;;;5051815;28;20377;-57
2021/10/26 10:18:42;;;;;;;11.13;6.60;;;17.70;99.90;;;;;;5051077;28;20476;-57
2021/10/26 10:21:10;;;;;;;10.60;6.28;;;17.70;99.90;;;;;;5051507;28;20468;-57
2021/10/26 10:23:36;;;;;;;11.13;6.60;;;18.40;99.90;;;;;;5050126;28;20443;-55
2021/10/26 10:26:02;;;;;;;9.63;6.93;;;19.40;99.90;;;;;;5051326;28;20373;-55
2021/10/26 10:28:32;;;;;;;11.13;6.33;;;19.90;99.90;;;;;;5050818;28;20385;-55
2021/10/26 10:30:58;;;;;;;14.43;6.27;;;20.30;99.90;;;;;;5050286;28;20421;-56
2021/10/26 10:33:25;;;;;;;10.38;6.35;;;20.60;99.90;;;;;;5050735;28;20911;-61
2021/10/26 10:35:54;;;;;;;11.25;6.80;;;20.90;99.90;;;;;;5051391;28;20513;-57
2021/10/26 10:38:26;;;;;;;9.67;6.10;;;20.50;99.90;;;;;;5051295;28;20397;-56
2021/10/26 10:41:11;;;;;;;11.18;6.70;;;19.80;99.90;;;;;;5049790;28;20415;-55
2021/10/26 10:43:37;;;;;;;11.07;5.80;;;19.00;99.90;;;;;;5050546;28;20378;-56
2021/10/26 10:46:03;;;;;;;13.48;6.10;;;18.30;99.90;;;;;;5049695;28;20390;-56
2021/10/26 10:48:32;;;;;;;10.10;5.50;;;18.00;99.90;;;;;;5050488;28;20389;-57
2021/10/26 10:51:08;;;;;;;11.98;5.80;;;17.80;99.90;;;;;;5050944;28;20500;-56
2021/10/26 10:53:35;;;;;;;9.88;5.82;;;17.80;99.90;;;;;;5050582;28;20404;-56
2021/10/26 10:56:21;;;;;;;10.60;5.55;;;17.90;99.90;;;;;;5050790;28;20382;-57
2021/10/26 10:58:50;;;;;;;10.48;5.60;;;17.80;99.90;;;;;;5051053;28;20378;-56
2021/10/26 11:01:20;;;;;;;10.85;6.72;;;17.90;99.90;;;;;;5051516;28;20396;-57
2021/10/26 11:03:45;;;;;;;12.18;7.15;;;18.20;99.90;;;;;;5050565;28;20438;-56
2021/10/26 11:06:43;;;;;;;11.95;6.00;;;18.60;99.90;;;;;;5050396;28;20390;-56
2021/10/26 11:09:41;;;;;;;11.83;5.90;;;18.60;99.90;;;;;;5050787;28;20522;-56
2021/10/26 11:12:13;;;;;;;10.32;5.63;;;18.40;99.90;;;;;;5038655;28;20471;-56
2021/10/26 11:14:45;;;;;;;10.63;6.10;;;18.30;99.90;;;;;;5050210;28;20409;-57
2021/10/26 11:17:38;;;;;;;11.27;5.82;;;18.20;99.90;;;;;;5082842;28;20409;-57
2021/10/26 11:20:32;;;;;;;10.90;6.00;;;18.10;99.90;;;;;;5050814;28;20389;-58
2021/10/26 11:23:04;;;;;;;12.10;5.80;;;18.20;99.90;;;;;;5050447;28;20418;-56
2021/10/26 11:25:34;;;;;;;9.95;5.30;;;18.10;99.90;;;;;;5050000;28;20475;-56
2021/10/26 11:28:13;;;;;;;10.38;5.55;;;17.90;99.90;;;;;;5050761;28;20476;-57
2021/10/26 11:30:44;;;;;;;13.30;5.33;;;17.70;99.90;;;;;;5049776;28;20741;-57
2021/10/26 11:33:16;;;;;;;9.80;5.00;;;17.60;99.90;;;;;;5050637;28;20507;-56
2021/10/26 11:35:55;;;;;;;13.15;5.50;;;17.50;99.90;;;;;;5080741;28;20436;-56
2021/10/26 11:38:23;;;;;;;9.43;4.75;;;17.70;99.90;;;;;;5050456;28;20408;-57
2021/10/26 11:41:10;;;;;;;10.45;5.10;;;17.70;99.90;;;;;;5049767;28;20405;-56
2021/10/26 11:43:45;;;;;;;9.75;4.70;;;17.90;99.90;;;;;;5049246;28;20389;-56
2021/10/26 11:46:20;;;;;;;10.60;5.40;;;18.30;99.90;;;;;;5049765;28;20876;-56
2021/10/26 11:48:55;;;;;;;8.50;4.80;;;18.30;99.90;;;;;;5081507;28;20409;-56
2021/10/26 11:51:29;;;;;;;11.60;5.10;;;18.10;99.90;;;;;;5050186;28;20543;-57
2021/10/26 11:54:06;;;;;;;8.75;5.35;;;17.80;99.90;;;;;;5050041;28;20409;-56
2021/10/26 11:56:39;;;;;;;9.85;5.55;;;17.50;99.90;;;;;;5042928;28;20403;-56
2021/10/26 11:59:07;;;;;;;11.40;5.27;;;17.40;99.90;;;;;;5030168;28;20379;-56
2021/10/26 12:01:39;;;;;;;9.38;5.05;;;17.20;99.90;;;;;;5029286;28;20472;-56
2021/10/26 12:04:07;;;;;;;11.02;5.07;;;17.10;99.90;;;;;;5029959;28;20387;-57
2021/10/26 12:06:34;;;;;;;10.17;4.80;;;17.30;99.90;;;;;;5028827;28;20388;-56
2021/10/26 12:09:01;;;;;;;9.80;4.88;;;17.40;99.90;;;;;;5030158;28;20481;-58
2021/10/26 12:11:34;;;;;;;9.93;4.78;;;17.40;99.90;;;;;;5029198;28;20406;-61
2021/10/26 12:14:28;;;;;;;9.55;4.30;;;17.40;99.90;;;;;;5029558;28;20410;-56
2021/10/26 12:17:28;;;;;;;9.80;4.53;;;17.40;99.90;;;;;;5029330;28;20494;-56
2021/10/26 12:20:21;;;;;;;10.75;5.00;;;17.50;99.90;;;;;;5029636;28;20394;-57
2021/10/26 12:23:01;;;;;;;9.02;4.35;;;17.70;99.90;;;;;;5028588;28;20471;-58
2021/10/26 12:25:33;;;;;;;6.43;2.42;;;17.70;99.90;;;;;;5029103;28;20398;-60
2021/10/26 12:28:01;;;;;;;10.35;3.55;;;17.60;99.90;;;;;;5029614;28;20881;-56
2021/10/26 12:30:32;;;;;;;7.75;2.60;;;17.70;99.90;;;;;;5027875;28;20383;-61
2021/10/26 12:32:58;;;;;;;9.70;2.50;;;18.20;99.90;;;;;;5029297;28;20387;-55
2021/10/26 12:35:26;;;;;;;8.73;2.80;;;18.60;99.90;;;;;;5029090;28;20812;-58
2021/10/26 12:38:16;;;;;;;6.30;2.70;;;18.70;99.90;;;;;;5060937;28;20403;-56
2021/10/26 12:40:45;;;;;;;7.03;2.10;;;18.50;99.90;;;;;;5028768;28;20387;-57
2021/10/26 12:43:12;;;;;;;5.93;2.40;;;18.30;99.90;;;;;;5029254;28;20387;-57
2021/10/26 12:45:41;;;;;;;5.50;2.22;;;18.10;99.90;;;;;;5028487;28;20453;-57
2021/10/26 12:48:11;;;;;;;7.20;2.50;;;17.90;99.90;;;;;;5028835;28;20371;-56
2021/10/26 12:50:55;;;;;;;8.32;2.55;;;17.70;99.90;;;;;;5028673;28;20394;-57
2021/10/26 12:53:38;;;;;;;6.20;2.20;;;17.40;99.90;;;;;;5028672;28;20410;-57